Time;durP1;ratioP1;P1;durP2;ratioP2;P2;SDS_P1;SDS_P2;PMS_P1;PMS_P2;Temp;Humidity;BMP_temperature;BMP_pressure;BME280_temperature;BME280_humidity;BME280_pressure;Samples;Min_cycle;Max_cycle;Signal;HPM_P1;HPM_P2
2023/01/11 00:00:31;;;;;;;0.52;0.20;;;19.70;59.50;;;;;;5055299;28;20052;-60
2023/01/11 00:02:58;;;;;;;1.65;0.40;;;19.70;59.50;;;;;;5056145;28;20045;-60
2023/01/11 00:05:24;;;;;;;1.13;0.60;;;19.70;59.50;;;;;;5055785;28;20481;-60
2023/01/11 00:07:49;;;;;;;1.02;0.40;;;19.70;59.50;;;;;;5055499;28;20109;-59
2023/01/11 00:10:15;;;;;;;0.65;0.40;;;19.70;59.40;;;;;;5056051;28;20374;-60
2023/01/11 00:12:41;;;;;;;2.05;0.40;;;19.70;59.40;;;;;;5050831;28;20504;-60
2023/01/11 00:15:07;;;;;;;0.88;0.40;;;19.70;59.40;;;;;;5054899;28;20183;-60
2023/01/11 00:17:32;;;;;;;1.25;0.40;;;19.70;59.50;;;;;;5055286;28;20045;-60
2023/01/11 00:19:58;;;;;;;1.95;0.45;;;19.60;59.40;;;;;;5045064;28;20065;-59
2023/01/11 00:22:23;;;;;;;0.93;0.35;;;19.60;59.40;;;;;;5035429;28;20050;-59
2023/01/11 00:24:49;;;;;;;0.85;0.30;;;19.60;59.40;;;;;;5036025;28;20048;-59
2023/01/11 00:27:15;;;;;;;1.90;0.47;;;19.60;59.40;;;;;;5034602;28;20049;-59
2023/01/11 00:29:40;;;;;;;4.60;0.40;;;19.60;59.40;;;;;;5035782;28;20046;-59
2023/01/11 00:32:06;;;;;;;1.08;0.43;;;19.60;59.40;;;;;;5036049;28;20051;-59
2023/01/11 00:34:31;;;;;;;2.45;0.40;;;19.60;59.40;;;;;;5034230;28;20049;-60
2023/01/11 00:36:57;;;;;;;0.88;0.40;;;19.60;59.70;;;;;;5035842;28;20056;-60
2023/01/11 00:39:22;;;;;;;0.85;0.38;;;19.60;59.40;;;;;;5033950;28;20132;-59
2023/01/11 00:50:01;;;;;;;1.60;0.40;;;19.50;59.40;;;;;;5034858;28;20045;-59
2023/01/11 00:52:26;;;;;;;1.30;0.40;;;19.50;59.40;;;;;;5035153;28;20370;-60
2023/01/11 00:54:52;;;;;;;2.08;0.40;;;19.50;59.50;;;;;;5035425;28;20045;-59
2023/01/11 00:57:18;;;;;;;1.35;0.32;;;19.50;59.40;;;;;;5051064;28;20036;-59
2023/01/11 00:59:43;;;;;;;1.35;0.30;;;19.50;59.40;;;;;;5054328;28;20048;-59
2023/01/11 01:02:09;;;;;;;0.80;0.30;;;19.50;59.40;;;;;;5054300;28;20116;-59
2023/01/11 01:04:35;;;;;;;0.88;0.38;;;19.50;59.40;;;;;;5055003;28;20041;-59
2023/01/11 01:07:01;;;;;;;2.55;0.40;;;19.50;59.50;;;;;;5054842;28;20051;-60
2023/01/11 01:09:26;;;;;;;0.90;0.45;;;19.50;59.50;;;;;;5054024;28;20143;-59
2023/01/11 01:11:52;;;;;;;0.77;0.30;;;19.50;59.40;;;;;;5055149;28;20075;-60
2023/01/11 01:14:28;;;;;;;1.38;0.30;;;19.50;59.50;;;;;;5054113;28;20044;-60
2023/01/11 01:16:55;;;;;;;1.55;0.55;;;19.40;59.40;;;;;;5054518;28;20037;-60
2023/01/11 01:19:21;;;;;;;1.20;0.32;;;19.40;59.40;;;;;;5050053;28;20102;-60
2023/01/11 01:21:48;;;;;;;1.08;0.35;;;19.40;59.40;;;;;;5054626;28;20484;-59
2023/01/11 01:24:13;;;;;;;1.33;0.30;;;19.40;59.50;;;;;;5054020;28;20044;-60
2023/01/11 01:26:39;;;;;;;1.67;0.40;;;19.40;59.50;;;;;;5054512;28;20044;-60
2023/01/11 01:29:05;;;;;;;0.80;0.20;;;19.40;59.50;;;;;;5054508;28;20041;-59
2023/01/11 01:31:30;;;;;;;1.13;0.32;;;19.40;59.50;;;;;;5052688;28;20068;-59
2023/01/11 01:33:56;;;;;;;0.50;0.30;;;19.40;59.50;;;;;;5054506;28;20484;-59
2023/01/11 01:36:21;;;;;;;2.05;0.50;;;19.40;59.50;;;;;;5054498;28;20358;-59
2023/01/11 01:38:47;;;;;;;0.73;0.30;;;19.30;59.40;;;;;;5052778;28;20052;-60
2023/01/11 01:41:12;;;;;;;0.73;0.25;;;19.30;59.40;;;;;;5054378;28;20037;-59
2023/01/11 01:43:52;;;;;;;1.73;0.40;;;19.30;59.50;;;;;;5054149;28;20041;-59
2023/01/11 01:46:18;;;;;;;0.70;0.20;;;19.40;59.50;;;;;;5053488;28;20049;-59
2023/01/11 01:48:52;;;;;;;1.58;0.30;;;19.30;59.50;;;;;;5054212;28;20128;-59
2023/01/11 01:51:22;;;;;;;0.93;0.40;;;19.30;59.50;;;;;;5052755;28;20044;-60
2023/01/11 01:53:48;;;;;;;1.38;0.30;;;19.40;59.60;;;;;;5052216;28;20084;-59
2023/01/11 01:56:17;;;;;;;1.00;0.30;;;19.30;59.50;;;;;;5052685;28;20037;-59
2023/01/11 01:58:49;;;;;;;0.45;0.30;;;19.30;59.50;;;;;;5052261;28;20127;-59
2023/01/11 02:03:59;;;;;;;1.52;0.30;;;19.30;59.50;;;;;;5053267;28;20049;-59
2023/01/11 02:06:25;;;;;;;0.90;0.30;;;19.30;59.50;;;;;;5051279;28;20044;-59
2023/01/11 02:08:57;;;;;;;0.35;0.20;;;19.30;59.60;;;;;;5053490;28;20045;-59
2023/01/11 02:11:29;;;;;;;0.32;0.30;;;19.30;59.60;;;;;;5052615;28;20060;-59
2023/01/11 02:13:59;;;;;;;0.73;0.20;;;19.30;59.60;;;;;;5051648;28;20045;-59
2023/01/11 02:16:25;;;;;;;0.98;0.30;;;19.30;59.60;;;;;;5052012;28;20048;-59
2023/01/11 02:18:50;;;;;;;0.32;0.25;;;19.30;59.60;;;;;;5053270;28;20052;-59
2023/01/11 02:21:43;;;;;;;0.85;0.38;;;19.30;59.60;;;;;;5051766;28;20132;-60
2023/01/11 02:24:27;;;;;;;0.65;0.20;;;19.30;59.70;;;;;;5052433;28;20045;-59
2023/01/11 02:27:15;;;;;;;0.73;0.20;;;19.20;59.60;;;;;;5052561;28;20044;-59
2023/01/11 02:30:14;;;;;;;0.35;0.20;;;19.20;59.60;;;;;;5052544;28;20586;-59
2023/01/11 02:33:03;;;;;;;1.35;0.20;;;19.20;59.60;;;;;;5052169;28;20397;-59
2023/01/11 02:35:31;;;;;;;1.52;0.40;;;19.20;59.70;;;;;;5051125;28;20161;-60
2023/01/11 02:38:00;;;;;;;0.73;0.30;;;19.20;59.70;;;;;;5052466;28;20041;-59
2023/01/11 02:40:53;;;;;;;0.90;0.30;;;19.20;59.70;;;;;;5047371;28;20045;-59
2023/01/11 02:46:29;;;;;;;0.30;0.20;;;19.20;59.70;;;;;;5052012;28;20049;-59
2023/01/11 02:49:12;;;;;;;1.20;0.30;;;19.20;59.70;;;;;;5051350;28;20044;-60
2023/01/11 02:51:56;;;;;;;1.17;0.20;;;19.10;59.70;;;;;;5051668;28;20408;-59
2023/01/11 02:54:22;;;;;;;0.38;0.20;;;19.20;59.80;;;;;;5052607;28;20083;-58
2023/01/11 02:56:48;;;;;;;0.17;0.15;;;19.10;59.80;;;;;;5052111;28;20068;-59
2023/01/11 02:59:20;;;;;;;0.93;0.30;;;19.10;59.80;;;;;;5051451;28;20050;-59
2023/01/11 03:01:47;;;;;;;0.57;0.20;;;19.20;59.80;;;;;;5051012;28;20043;-59
2023/01/11 03:04:32;;;;;;;0.20;0.20;;;19.10;59.80;;;;;;5052712;28;20125;-59
2023/01/11 03:07:29;;;;;;;0.50;0.30;;;19.10;59.80;;;;;;5052460;28;20056;-59
2023/01/11 03:10:10;;;;;;;0.30;0.15;;;19.10;59.80;;;;;;5042349;28;20056;-59
2023/01/11 03:12:57;;;;;;;0.50;0.20;;;19.10;59.80;;;;;;5050073;28;20432;-59
2023/01/11 03:15:48;;;;;;;0.50;0.25;;;19.10;59.80;;;;;;5050286;28;20569;-59
2023/01/11 03:18:34;;;;;;;0.10;0.10;;;19.10;59.80;;;;;;5051025;28;20488;-59
2023/01/11 03:21:22;;;;;;;1.13;0.30;;;19.10;59.90;;;;;;5051953;28;20500;-59
2023/01/11 03:23:59;;;;;;;0.32;0.20;;;19.10;59.90;;;;;;5052238;28;20084;-59
2023/01/11 03:26:40;;;;;;;0.65;0.20;;;19.10;59.90;;;;;;5052271;28;20048;-59
2023/01/11 03:29:31;;;;;;;0.50;0.20;;;19.10;60.00;;;;;;5051346;28;20095;-59
2023/01/11 03:32:25;;;;;;;0.70;0.30;;;19.10;59.90;;;;;;5050569;28;20083;-59
2023/01/11 03:35:06;;;;;;;0.30;0.13;;;19.00;59.90;;;;;;5052658;28;20099;-59
2023/01/11 03:37:36;;;;;;;0.47;0.20;;;19.10;60.00;;;;;;5051748;28;20037;-59
2023/01/11 03:40:41;;;;;;;0.22;0.20;;;19.10;60.00;;;;;;5052420;28;20049;-59
2023/01/11 03:43:12;;;;;;;1.80;0.30;;;19.10;60.00;;;;;;5045236;28;20060;-59
2023/01/11 03:46:05;;;;;;;0.65;0.20;;;19.10;60.00;;;;;;5050437;28;20045;-59
2023/01/11 03:48:40;;;;;;;0.20;0.20;;;19.10;60.00;;;;;;5050758;28;20045;-59
2023/01/11 03:51:11;;;;;;;0.32;0.10;;;19.10;60.00;;;;;;5050534;28;20098;-59
2023/01/11 03:53:37;;;;;;;0.40;0.20;;;19.10;60.00;;;;;;5034415;28;20055;-59
2023/01/11 03:56:03;;;;;;;0.50;0.20;;;19.10;60.00;;;;;;5034430;28;20041;-59
2023/01/11 03:58:28;;;;;;;0.10;0.10;;;19.10;60.00;;;;;;5050220;28;20067;-59
2023/01/11 04:00:55;;;;;;;1.15;0.30;;;19.10;60.00;;;;;;5052420;28;20052;-59
2023/01/11 04:03:20;;;;;;;0.25;0.20;;;19.10;60.00;;;;;;5052353;28;20040;-59
2023/01/11 04:05:46;;;;;;;0.20;0.10;;;19.10;60.00;;;;;;5051375;28;20037;-59
2023/01/11 04:08:12;;;;;;;1.02;0.30;;;19.20;60.00;;;;;;5050791;28;20041;-59
2023/01/11 04:10:38;;;;;;;0.28;0.20;;;19.20;60.00;;;;;;5051458;28;20388;-59
2023/01/11 04:13:03;;;;;;;0.60;0.20;;;19.20;60.00;;;;;;5051226;28;20040;-59
2023/01/11 04:15:30;;;;;;;0.32;0.20;;;19.20;60.00;;;;;;5051592;28;20441;-59
2023/01/11 04:18:03;;;;;;;0.35;0.20;;;19.30;60.00;;;;;;5052052;28;20052;-59
2023/01/11 04:20:36;;;;;;;0.45;0.20;;;19.30;60.00;;;;;;5051032;28;20061;-59
2023/01/11 04:23:02;;;;;;;0.50;0.20;;;19.30;60.00;;;;;;5047129;28;20067;-59
2023/01/11 04:25:27;;;;;;;0.38;0.10;;;19.30;60.00;;;;;;5051828;28;20049;-59
2023/01/11 04:27:53;;;;;;;0.10;0.10;;;19.30;60.00;;;;;;5051186;28;20048;-59
2023/01/11 04:30:19;;;;;;;0.20;0.20;;;19.30;60.00;;;;;;5051604;28;20072;-59
2023/01/11 04:32:44;;;;;;;0.30;0.20;;;19.30;60.00;;;;;;5054051;28;20041;-59
2023/01/11 04:35:10;;;;;;;0.98;0.20;;;19.40;60.00;;;;;;5054535;28;20043;-59
2023/01/11 04:37:35;;;;;;;0.30;0.20;;;19.40;60.00;;;;;;5055885;28;20132;-59
2023/01/11 04:40:01;;;;;;;0.82;0.10;;;19.40;60.00;;;;;;5055973;28;20037;-59
2023/01/11 04:42:27;;;;;;;0.20;0.10;;;19.40;60.00;;;;;;5054436;28;20041;-59
2023/01/11 04:44:52;;;;;;;0.50;0.15;;;19.40;60.00;;;;;;5055273;28;20538;-59
2023/01/11 04:47:19;;;;;;;0.52;0.10;;;19.50;60.00;;;;;;5054483;28;20444;-59
2023/01/11 04:49:45;;;;;;;0.63;0.20;;;19.50;60.00;;;;;;5055251;28;20044;-59
2023/01/11 04:52:11;;;;;;;0.68;0.20;;;19.50;60.00;;;;;;5055149;28;20132;-59
2023/01/11 04:54:37;;;;;;;0.30;0.17;;;19.50;60.00;;;;;;5054667;28;20056;-59
2023/01/11 04:57:03;;;;;;;0.20;0.20;;;19.50;60.00;;;;;;5055334;28;20037;-60
2023/01/11 04:59:28;;;;;;;0.47;0.10;;;19.50;60.00;;;;;;5054711;28;20075;-60
2023/01/11 05:01:54;;;;;;;0.65;0.25;;;19.50;60.00;;;;;;5053126;28;20116;-60
2023/01/11 05:04:20;;;;;;;0.88;0.10;;;19.60;60.10;;;;;;5054106;28;20037;-60
2023/01/11 05:06:45;;;;;;;0.13;0.10;;;19.60;60.00;;;;;;5054157;28;20044;-60
2023/01/11 05:09:15;;;;;;;0.20;0.10;;;19.60;60.00;;;;;;5053959;28;20041;-60
2023/01/11 05:11:40;;;;;;;0.10;0.10;;;19.60;60.00;;;;;;5055010;28;20116;-60
2023/01/11 05:14:06;;;;;;;0.70;0.20;;;19.60;60.00;;;;;;5054692;28;20508;-60
2023/01/11 05:16:32;;;;;;;0.50;0.17;;;19.60;60.00;;;;;;5052380;28;20045;-60
2023/01/11 05:18:58;;;;;;;0.10;0.10;;;19.60;60.00;;;;;;5054648;28;20068;-60
2023/01/11 05:21:26;;;;;;;0.47;0.20;;;19.70;60.00;;;;;;5053446;28;20570;-60
2023/01/11 05:23:52;;;;;;;0.52;0.10;;;19.70;60.10;;;;;;5054208;28;20069;-60
2023/01/11 05:26:22;;;;;;;0.10;0.10;;;19.70;60.10;;;;;;5054348;28;20057;-60
2023/01/11 05:28:47;;;;;;;0.10;0.10;;;19.70;60.10;;;;;;5049517;28;20078;-60
2023/01/11 05:31:13;;;;;;;0.20;0.20;;;19.70;60.10;;;;;;5053441;28;20081;-60
2023/01/11 05:33:39;;;;;;;0.10;0.10;;;19.70;60.00;;;;;;5054282;28;20087;-58
2023/01/11 05:36:11;;;;;;;0.10;0.10;;;19.70;60.00;;;;;;5053340;28;20041;-58
2023/01/11 05:38:36;;;;;;;0.50;0.20;;;19.70;60.00;;;;;;5052547;28;20047;-58
2023/01/11 05:41:04;;;;;;;0.20;0.10;;;19.70;60.10;;;;;;5053608;28;20044;-58
2023/01/11 05:43:29;;;;;;;0.68;0.20;;;19.80;60.10;;;;;;5052929;28;20044;-58
2023/01/11 05:45:56;;;;;;;1.88;0.20;;;19.80;60.10;;;;;;5054312;28;20041;-58
2023/01/11 05:48:22;;;;;;;0.15;0.10;;;19.80;60.10;;;;;;5054112;28;20044;-58
2023/01/11 05:50:51;;;;;;;0.10;0.10;;;19.80;60.10;;;;;;5053496;28;20111;-58
2023/01/11 05:53:17;;;;;;;0.90;0.15;;;19.80;60.10;;;;;;5054136;28;20037;-58
2023/01/11 05:55:55;;;;;;;0.57;0.10;;;19.80;60.00;;;;;;5054008;28;20037;-58
2023/01/11 05:58:22;;;;;;;0.17;0.13;;;19.80;60.10;;;;;;5053014;28;20041;-58
2023/01/11 06:00:52;;;;;;;0.30;0.10;;;19.80;60.10;;;;;;5054142;28;20095;-59
2023/01/11 06:03:17;;;;;;;0.40;0.20;;;19.80;60.10;;;;;;5053663;28;20056;-59
2023/01/11 06:05:43;;;;;;;0.20;0.10;;;19.80;60.10;;;;;;5053287;28;20397;-60
2023/01/11 06:08:09;;;;;;;1.15;0.20;;;19.80;60.10;;;;;;5052359;28;20135;-59
2023/01/11 06:10:34;;;;;;;0.17;0.15;;;19.80;60.10;;;;;;5053996;28;20508;-59
2023/01/11 06:15:44;;;;;;;0.20;0.10;;;19.90;60.10;;;;;;5054059;28;20049;-59
2023/01/11 06:18:10;;;;;;;0.28;0.20;;;19.90;60.10;;;;;;5052576;28;20049;-60
2023/01/11 06:20:35;;;;;;;0.25;0.10;;;19.90;60.10;;;;;;5052979;28;20171;-59
2023/01/11 06:23:02;;;;;;;0.57;0.10;;;19.90;60.10;;;;;;5053874;28;20136;-59
2023/01/11 06:25:29;;;;;;;0.30;0.20;;;19.90;60.20;;;;;;5053396;28;20815;-60
2023/01/11 06:27:55;;;;;;;1.27;0.20;;;19.90;60.10;;;;;;5052861;28;20110;-61
2023/01/11 06:30:20;;;;;;;0.40;0.10;;;19.90;60.10;;;;;;5052976;28;20439;-59
2023/01/11 06:32:46;;;;;;;0.35;0.15;;;19.90;60.10;;;;;;5052617;28;20067;-59
2023/01/11 06:35:11;;;;;;;0.30;0.20;;;19.90;60.20;;;;;;5053203;28;20052;-59
2023/01/11 06:37:37;;;;;;;0.52;0.17;;;19.90;60.20;;;;;;5053476;28;20038;-59
2023/01/11 06:40:03;;;;;;;0.28;0.10;;;19.90;60.20;;;;;;5052272;28;20423;-59
2023/01/11 06:42:28;;;;;;;0.10;0.10;;;19.90;60.20;;;;;;5053164;28;20572;-59
2023/01/11 06:44:54;;;;;;;0.40;0.20;;;19.90;60.10;;;;;;5048045;28;20041;-59
2023/01/11 06:47:19;;;;;;;0.20;0.10;;;19.90;60.10;;;;;;5052076;28;20063;-59
2023/01/11 06:49:45;;;;;;;0.75;0.30;;;19.90;60.10;;;;;;5052726;28;20080;-59
2023/01/11 06:52:10;;;;;;;0.22;0.20;;;19.90;60.10;;;;;;5052605;28;20037;-60
2023/01/11 06:54:36;;;;;;;0.88;0.20;;;19.90;60.10;;;;;;5052347;28;20048;-59
2023/01/11 06:57:02;;;;;;;1.20;0.20;;;19.90;60.10;;;;;;5052227;28;20522;-59
2023/01/11 06:59:27;;;;;;;0.43;0.20;;;20.00;60.20;;;;;;5052506;28;20167;-59
2023/01/11 07:01:53;;;;;;;0.43;0.20;;;20.00;60.20;;;;;;5052288;28;20045;-59
2023/01/11 07:04:19;;;;;;;0.70;0.30;;;20.00;60.20;;;;;;5052501;28;20029;-60
2023/01/11 07:06:45;;;;;;;0.43;0.20;;;20.00;60.20;;;;;;5053355;28;20484;-59
2023/01/11 07:09:10;;;;;;;0.93;0.22;;;20.00;60.20;;;;;;5052050;28;20182;-60
2023/01/11 07:11:38;;;;;;;0.85;0.28;;;20.00;60.20;;;;;;5052859;28;20037;-59
2023/01/11 07:14:04;;;;;;;0.27;0.20;;;20.00;60.20;;;;;;5052808;28;20071;-59
2023/01/11 07:16:30;;;;;;;1.40;0.20;;;20.00;60.20;;;;;;5051777;28;20051;-60
2023/01/11 07:18:55;;;;;;;0.95;0.28;;;20.00;60.10;;;;;;5052234;28;20045;-59
2023/01/11 07:21:21;;;;;;;0.20;0.20;;;20.00;60.10;;;;;;5052558;28;20083;-59
2023/01/11 07:23:47;;;;;;;1.05;0.20;;;20.00;60.10;;;;;;5051889;28;20409;-59
2023/01/11 07:26:15;;;;;;;1.17;0.47;;;20.00;60.20;;;;;;5052250;28;20396;-60
2023/01/11 07:28:42;;;;;;;0.20;0.20;;;20.00;60.10;;;;;;5052530;28;20508;-60
2023/01/11 07:31:07;;;;;;;0.88;0.20;;;20.00;60.20;;;;;;5051895;28;20115;-59
2023/01/11 07:33:33;;;;;;;0.77;0.20;;;20.10;60.20;;;;;;5052107;28;20143;-60
2023/01/11 07:35:59;;;;;;;0.40;0.28;;;20.00;60.10;;;;;;5052052;28;20048;-59
2023/01/11 07:38:27;;;;;;;0.82;0.20;;;20.10;60.20;;;;;;5052441;28;20041;-60
2023/01/11 07:40:53;;;;;;;1.40;0.30;;;20.10;60.20;;;;;;5052590;28;20045;-60
2023/01/11 07:43:21;;;;;;;0.30;0.20;;;20.10;60.20;;;;;;5050064;28;20045;-60
2023/01/11 07:45:48;;;;;;;1.15;0.30;;;20.10;60.20;;;;;;5052613;28;20124;-60
2023/01/11 07:48:15;;;;;;;1.27;0.30;;;20.10;60.20;;;;;;5050638;28;20056;-61
2023/01/11 07:50:41;;;;;;;7.82;0.52;;;20.10;60.20;;;;;;5051830;28;20045;-60
2023/01/11 07:53:07;;;;;;;0.60;0.45;;;20.10;60.20;;;;;;5052662;28;20041;-59
2023/01/11 07:55:33;;;;;;;3.08;0.52;;;20.10;60.20;;;;;;5051854;28;20045;-60
2023/01/11 07:57:58;;;;;;;2.53;0.30;;;20.10;60.20;;;;;;5051236;28;20051;-60
2023/01/11 08:00:24;;;;;;;3.58;0.40;;;20.10;60.30;;;;;;5052107;28;20033;-60
2023/01/11 08:02:51;;;;;;;3.58;0.50;;;20.10;60.30;;;;;;5047018;28;20045;-59
2023/01/11 08:05:18;;;;;;;2.50;0.40;;;20.10;60.30;;;;;;5051186;28;20049;-59
2023/01/11 08:07:43;;;;;;;1.35;0.38;;;20.10;60.30;;;;;;5053863;28;20480;-59
2023/01/11 08:10:09;;;;;;;2.67;0.35;;;20.10;60.40;;;;;;5056154;28;20041;-60
2023/01/11 08:15:25;;;;;;;3.63;0.50;;;20.10;60.50;;;;;;5056000;28;20057;-67
2023/01/11 08:17:51;;;;;;;4.72;0.75;;;20.10;60.60;;;;;;5056366;28;20127;-60
2023/01/11 08:20:16;;;;;;;2.15;0.60;;;20.10;60.60;;;;;;5054818;28;20049;-59
2023/01/11 08:22:42;;;;;;;5.15;0.60;;;20.10;60.80;;;;;;5055906;28;20041;-59
2023/01/11 08:25:08;;;;;;;3.38;0.60;;;20.20;60.90;;;;;;5055428;28;20186;-59
2023/01/11 08:27:33;;;;;;;4.43;0.50;;;20.10;60.80;;;;;;5055569;28;20037;-60
2023/01/11 08:29:59;;;;;;;3.47;0.73;;;20.20;60.90;;;;;;5054441;28;20048;-58
2023/01/11 08:32:27;;;;;;;5.75;0.73;;;20.20;60.90;;;;;;5055024;28;20044;-59
2023/01/11 08:34:52;;;;;;;4.72;0.50;;;20.20;61.10;;;;;;5055119;28;20044;-59
2023/01/11 08:37:18;;;;;;;2.38;0.50;;;20.20;61.10;;;;;;5054966;28;20071;-59
2023/01/11 08:39:43;;;;;;;5.00;0.40;;;20.20;61.10;;;;;;5054396;28;20036;-59
2023/01/11 08:42:09;;;;;;;4.40;0.50;;;20.20;61.10;;;;;;5055029;28;20048;-59
2023/01/11 08:44:35;;;;;;;6.35;0.68;;;20.20;61.10;;;;;;5055499;28;20071;-59
2023/01/11 08:47:03;;;;;;;3.08;0.60;;;20.20;61.10;;;;;;5054812;28;20037;-59
2023/01/11 08:49:29;;;;;;;4.80;0.60;;;20.20;61.10;;;;;;5053497;28;20416;-59
2023/01/11 08:51:55;;;;;;;2.35;0.50;;;20.20;61.10;;;;;;5055378;28;20484;-59
2023/01/11 08:54:20;;;;;;;3.83;1.02;;;20.20;61.10;;;;;;5054368;28;20044;-59
2023/01/11 08:56:46;;;;;;;2.30;0.50;;;20.20;61.10;;;;;;5055079;28;20080;-59
2023/01/11 08:59:12;;;;;;;2.88;0.57;;;20.20;61.20;;;;;;5054269;28;20048;-60
2023/01/11 09:01:37;;;;;;;4.60;0.77;;;20.30;61.20;;;;;;5054649;28;20049;-59
2023/01/11 09:04:03;;;;;;;3.95;0.60;;;20.30;61.20;;;;;;5055377;28;20155;-59
2023/01/11 09:06:29;;;;;;;3.05;0.68;;;20.30;61.30;;;;;;5055117;28;20049;-59
2023/01/11 09:08:54;;;;;;;1.58;0.50;;;20.30;61.30;;;;;;5054341;28;20469;-59
2023/01/11 09:14:04;;;;;;;5.15;0.60;;;20.30;61.40;;;;;;5042691;28;20400;-59
2023/01/11 09:16:30;;;;;;;2.40;0.68;;;20.20;61.30;;;;;;5052748;28;20484;-60
2023/01/11 09:18:55;;;;;;;3.70;0.63;;;20.20;61.30;;;;;;5053549;28;20053;-60
2023/01/11 09:21:21;;;;;;;2.40;0.80;;;20.30;61.50;;;;;;5054518;28;20084;-60
2023/01/11 09:23:46;;;;;;;1.70;0.50;;;20.20;61.40;;;;;;5054297;28;20049;-59
2023/01/11 09:26:12;;;;;;;3.22;0.52;;;20.20;61.40;;;;;;5053206;28;20044;-60
2023/01/11 09:28:38;;;;;;;4.38;0.60;;;20.20;61.40;;;;;;5053483;28;20080;-60
2023/01/11 09:31:03;;;;;;;3.42;0.55;;;20.20;61.40;;;;;;5054862;28;20040;-60
2023/01/11 09:33:29;;;;;;;3.60;0.57;;;20.20;61.40;;;;;;5054289;28;20065;-60
2023/01/11 09:35:57;;;;;;;2.58;0.60;;;20.20;61.40;;;;;;5053662;28;20049;-60
2023/01/11 09:38:28;;;;;;;3.33;0.70;;;20.20;61.40;;;;;;5054515;28;20083;-60
2023/01/11 09:41:23;;;;;;;2.67;0.70;;;20.20;61.40;;;;;;5054726;28;20048;-59
2023/01/11 09:44:01;;;;;;;3.90;0.75;;;20.20;61.40;;;;;;5050022;28;20116;-59
2023/01/11 09:46:27;;;;;;;;;;;20.20;61.40;;;;;;5053344;28;20443;-58
2023/01/11 09:48:53;;;;;;;3.90;0.70;;;20.20;61.40;;;;;;5052462;28;19921;-60
2023/01/11 09:51:19;;;;;;;4.20;0.80;;;20.20;61.70;;;;;;5035100;28;20498;-59
2023/01/11 09:53:49;;;;;;;3.58;0.85;;;20.20;61.50;;;;;;5036199;28;20124;-60
2023/01/11 09:56:18;;;;;;;3.80;0.73;;;20.20;61.50;;;;;;5051474;28;20049;-60
2023/01/11 09:58:53;;;;;;;4.53;0.70;;;20.20;61.50;;;;;;5051503;28;20044;-59
2023/01/11 10:01:23;;;;;;;2.35;0.77;;;20.20;61.40;;;;;;5051308;28;20048;-60
2023/01/11 10:04:28;;;;;;;2.67;0.60;;;20.20;61.50;;;;;;5051760;28;20404;-59
2023/01/11 10:07:09;;;;;;;1.92;0.70;;;20.20;61.50;;;;;;5052081;28;20036;-60
2023/01/11 10:09:43;;;;;;;5.22;0.80;;;20.20;61.50;;;;;;5047646;28;20037;-60
2023/01/11 10:12:15;;;;;;;3.42;0.82;;;20.20;61.50;;;;;;5029846;28;20050;-60
2023/01/11 10:14:53;;;;;;;4.18;0.57;;;20.20;61.50;;;;;;5031192;28;20500;-59
2023/01/11 10:17:51;;;;;;;4.03;0.90;;;20.10;61.50;;;;;;5030943;28;20049;-60
2023/01/11 10:20:27;;;;;;;2.70;0.70;;;20.10;61.40;;;;;;5030930;28;20053;-60
2023/01/11 10:23:35;;;;;;;4.47;0.80;;;20.10;61.50;;;;;;5032041;28;20033;-59
2023/01/11 10:26:01;;;;;;;3.72;0.82;;;20.10;61.40;;;;;;5033606;28;20523;-60
2023/01/11 10:28:45;;;;;;;3.83;1.15;;;20.10;61.50;;;;;;5042210;28;20085;-60
2023/01/11 10:31:43;;;;;;;3.47;0.90;;;20.10;61.50;;;;;;5051391;28;20048;-60
2023/01/11 10:34:35;;;;;;;;;;;20.10;61.40;;;;;;5052125;28;20179;-58
2023/01/11 10:40:39;;;;;;;4.35;0.98;;;20.10;61.40;;;;;;5051188;28;20455;-58
2023/01/11 10:43:16;;;;;;;3.00;1.00;;;20.10;61.50;;;;;;5051875;28;20392;-58
2023/01/11 10:45:49;;;;;;;6.47;1.85;;;20.10;61.40;;;;;;5051851;28;20137;-62
2023/01/11 10:48:37;;;;;;;9.88;2.10;;;20.00;59.60;;;;;;5051318;28;20080;-57
2023/01/11 10:51:13;;;;;;;11.40;1.88;;;19.50;55.20;;;;;;5053164;28;20045;-58
2023/01/11 10:53:48;;;;;;;8.52;1.92;;;19.30;57.80;;;;;;5051163;28;20183;-58
2023/01/11 10:56:42;;;;;;;10.10;1.85;;;19.20;57.90;;;;;;5052788;28;20052;-57
2023/01/11 10:59:08;;;;;;;7.95;1.73;;;19.20;57.90;;;;;;5047294;28;20080;-57
2023/01/11 11:01:38;;;;;;;6.05;1.77;;;19.30;58.30;;;;;;5052226;28;20099;-57
2023/01/11 11:04:22;;;;;;;10.70;1.70;;;19.30;58.30;;;;;;5051689;28;20041;-58
2023/01/11 11:06:57;;;;;;;11.40;1.42;;;19.40;58.40;;;;;;5052930;28;20045;-58
2023/01/11 11:09:42;;;;;;;9.00;1.20;;;19.40;58.40;;;;;;5051426;28;20480;-58
2023/01/11 11:12:11;;;;;;;10.18;2.00;;;19.50;58.50;;;;;;5052729;28;20123;-58
2023/01/11 11:14:38;;;;;;;10.48;2.08;;;19.50;58.50;;;;;;5034402;28;20051;-59
2023/01/11 11:17:32;;;;;;;8.03;1.37;;;19.60;58.70;;;;;;5053055;28;20045;-60
2023/01/11 11:19:57;;;;;;;8.10;1.60;;;19.70;59.00;;;;;;5034507;28;20353;-60
2023/01/11 11:22:23;;;;;;;7.03;1.80;;;19.70;59.10;;;;;;5051756;28;20041;-60
2023/01/11 11:24:58;;;;;;;7.05;1.83;;;19.70;59.30;;;;;;5052395;28;20056;-62
2023/01/11 11:27:26;;;;;;;5.30;1.50;;;19.80;59.60;;;;;;5052189;28;20489;-59
2023/01/11 11:29:54;;;;;;;6.75;1.70;;;19.80;59.50;;;;;;5051687;28;20495;-59
2023/01/11 11:32:35;;;;;;;8.13;1.08;;;19.90;59.50;;;;;;5052299;28;20048;-59
2023/01/11 11:35:00;;;;;;;7.32;1.60;;;19.90;59.50;;;;;;5052344;28;20114;-59
2023/01/11 11:37:34;;;;;;;6.85;1.70;;;19.90;59.40;;;;;;5051960;28;20477;-59
2023/01/11 11:39:59;;;;;;;9.00;1.60;;;19.90;59.50;;;;;;5051261;28;20049;-59
2023/01/11 11:42:25;;;;;;;5.63;1.23;;;20.00;59.50;;;;;;5036986;28;20154;-59
2023/01/11 11:45:03;;;;;;;5.00;1.30;;;20.00;59.50;;;;;;5059187;28;20439;-59
2023/01/11 11:47:29;;;;;;;6.20;1.38;;;20.00;59.60;;;;;;5058909;28;20049;-58
2023/01/11 11:49:56;;;;;;;4.85;1.38;;;20.00;60.20;;;;;;5058467;28;20045;-58
2023/01/11 11:52:21;;;;;;;5.93;1.63;;;20.00;59.60;;;;;;5041023;28;20040;-58
2023/01/11 11:54:49;;;;;;;7.43;1.58;;;20.00;59.60;;;;;;5041225;28;20053;-59
2023/01/11 11:57:23;;;;;;;8.45;1.65;;;20.00;59.60;;;;;;5057031;28;20036;-59
2023/01/11 11:59:51;;;;;;;8.20;1.65;;;20.10;59.70;;;;;;5057928;28;20116;-59
2023/01/11 12:02:35;;;;;;;6.95;1.25;;;20.10;59.60;;;;;;5057466;28;20044;-59
2023/01/11 12:05:06;;;;;;;4.55;1.10;;;20.10;59.70;;;;;;5056806;28;20044;-59
2023/01/11 12:07:34;;;;;;;6.10;1.98;;;20.10;59.70;;;;;;5058741;28;20087;-59
2023/01/11 12:10:04;;;;;;;7.00;1.13;;;20.10;59.60;;;;;;5058988;28;20060;-58
2023/01/11 12:12:30;;;;;;;6.82;1.65;;;20.10;59.90;;;;;;5054325;28;20040;-58
2023/01/11 12:15:04;;;;;;;6.57;1.25;;;20.10;60.00;;;;;;5039968;28;20099;-57
2023/01/11 12:17:30;;;;;;;5.25;1.20;;;20.10;60.20;;;;;;5056150;28;20155;-58
2023/01/11 12:19:56;;;;;;;5.88;1.30;;;20.10;60.20;;;;;;5057554;28;20110;-58
2023/01/11 12:22:26;;;;;;;5.20;1.33;;;20.10;60.20;;;;;;5053498;28;20053;-58
2023/01/11 12:25:11;;;;;;;7.28;1.52;;;20.10;61.00;;;;;;5057051;28;20384;-58
2023/01/11 12:27:41;;;;;;;5.53;1.08;;;20.20;60.50;;;;;;5058098;28;20044;-59
2023/01/11 12:30:20;;;;;;;7.35;1.05;;;20.20;60.50;;;;;;5057268;28;20047;-59
2023/01/11 12:33:15;;;;;;;4.97;1.08;;;20.20;60.50;;;;;;5039890;28;20084;-58
2023/01/11 12:35:55;;;;;;;4.38;1.33;;;20.20;60.60;;;;;;5057333;28;20045;-59
2023/01/11 12:38:32;;;;;;;4.72;1.20;;;20.20;60.70;;;;;;5050810;28;20037;-59
2023/01/11 12:41:16;;;;;;;9.20;1.70;;;20.20;60.80;;;;;;5049024;28;20516;-59
2023/01/11 12:44:05;;;;;;;5.28;1.25;;;20.30;60.90;;;;;;5055961;28;20455;-59
2023/01/11 12:46:41;;;;;;;6.60;1.40;;;20.30;60.90;;;;;;5060430;28;20073;-59
2023/01/11 12:49:35;;;;;;;4.30;1.17;;;20.30;60.90;;;;;;5055761;28;20059;-60
2023/01/11 12:52:28;;;;;;;8.82;1.20;;;20.30;60.90;;;;;;5055884;28;20476;-59
2023/01/11 12:55:03;;;;;;;6.25;1.40;;;20.30;60.90;;;;;;5051856;28;20045;-59
2023/01/11 12:57:34;;;;;;;6.38;1.77;;;20.30;60.80;;;;;;5054458;28;20037;-60
2023/01/11 13:00:30;;;;;;;6.68;2.08;;;20.30;60.80;;;;;;5052869;28;20060;-59
2023/01/11 13:03:32;;;;;;;5.80;1.88;;;20.40;60.90;;;;;;5050762;28;20423;-59
2023/01/11 13:06:20;;;;;;;5.30;1.50;;;20.40;60.90;;;;;;5049747;28;20060;-59
2023/01/11 13:08:58;;;;;;;6.55;1.80;;;20.40;61.00;;;;;;5052001;28;20036;-59
2023/01/11 13:11:48;;;;;;;4.13;1.40;;;20.40;60.90;;;;;;5053186;28;20048;-59
2023/01/11 13:14:28;;;;;;;6.40;1.70;;;20.40;60.90;;;;;;5050509;28;20072;-59
2023/01/11 13:17:03;;;;;;;6.30;1.65;;;20.40;60.90;;;;;;5051493;28;20033;-59
2023/01/11 13:19:52;;;;;;;6.15;1.75;;;20.40;60.90;;;;;;5053726;28;20064;-58
2023/01/11 13:22:22;;;;;;;4.13;1.55;;;20.40;61.00;;;;;;5045575;28;20550;-58
2023/01/11 13:24:49;;;;;;;6.85;1.90;;;20.40;61.00;;;;;;5052564;28;20175;-59
2023/01/11 13:27:23;;;;;;;6.18;1.75;;;20.40;61.00;;;;;;5052639;28;20044;-59
2023/01/11 13:29:55;;;;;;;5.78;1.95;;;20.50;61.10;;;;;;5052506;28;20071;-58
2023/01/11 13:32:29;;;;;;;5.60;1.40;;;20.50;61.20;;;;;;5052895;28;20120;-59